sensor_id;sensor_type;location;lat;lon;timestamp;noise_LAeq;noise_LA_min;noise_LA_max;noise_LA01;noise_LA95
66460;Laerm;58055;52.456;4.738;2023-08-01T00:00:05;49.92;48.32;53.50;;
66460;Laerm;58055;52.456;4.738;2023-08-01T00:00:17;49.66;48.05;52.11;;
66460;Laerm;58055;52.456;4.738;2023-08-01T00:00:28;49.59;48.21;51.71;;
66460;Laerm;58055;52.456;4.738;2023-08-01T00:00:38;49.93;48.58;53.53;;
66460;Laerm;58055;52.456;4.738;2023-08-01T00:00:48;50.06;48.79;52.31;;
66460;Laerm;58055;52.456;4.738;2023-08-01T00:00:59;50.27;48.55;56.53;;
66460;Laerm;58055;52.456;4.738;2023-08-01T00:01:09;50.15;48.40;53.56;;
66460;Laerm;58055;52.456;4.738;2023-08-01T00:01:19;49.82;48.34;53.18;;
66460;Laerm;58055;52.456;4.738;2023-08-01T00:01:29;50.06;48.37;52.62;;
66460;Laerm;58055;52.456;4.738;2023-08-01T00:01:40;50.28;48.17;53.65;;
66460;Laerm;58055;52.456;4.738;2023-08-01T00:01:50;50.07;48.43;54.08;;
66460;Laerm;58055;52.456;4.738;2023-08-01T00:02:00;50.39;48.98;54.15;;
66460;Laerm;58055;52.456;4.738;2023-08-01T00:02:11;50.42;48.70;53.11;;
66460;Laerm;58055;52.456;4.738;2023-08-01T00:02:21;50.37;48.45;53.74;;
66460;Laerm;58055;52.456;4.738;2023-08-01T00:02:31;50.62;48.39;56.11;;
66460;Laerm;58055;52.456;4.738;2023-08-01T00:02:42;51.35;47.87;56.70;;
66460;Laerm;58055;52.456;4.738;2023-08-01T00:02:52;52.62;49.25;57.03;;
66460;Laerm;58055;52.456;4.738;2023-08-01T00:03:02;49.76;48.05;52.95;;
66460;Laerm;58055;52.456;4.738;2023-08-01T00:03:13;49.39;48.16;52.52;;
66460;Laerm;58055;52.456;4.738;2023-08-01T00:03:23;49.58;48.06;52.58;;
66460;Laerm;58055;52.456;4.738;2023-08-01T00:03:33;49.88;48.37;52.80;;
66460;Laerm;58055;52.456;4.738;2023-08-01T00:03:43;49.67;48.10;53.10;;
66460;Laerm;58055;52.456;4.738;2023-08-01T00:03:54;49.70;48.13;53.55;;
66460;Laerm;58055;52.456;4.738;2023-08-01T00:04:04;49.55;48.17;52.65;;
66460;Laerm;58055;52.456;4.738;2023-08-01T00:04:14;49.48;47.96;51.59;;
66460;Laerm;58055;52.456;4.738;2023-08-01T00:04:24;49.48;47.76;51.98;;
66460;Laerm;58055;52.456;4.738;2023-08-01T00:04:35;49.42;48.19;53.15;;
66460;Laerm;58055;52.456;4.738;2023-08-01T00:04:45;49.41;48.14;53.35;;
66460;Laerm;58055;52.456;4.738;2023-08-01T00:04:55;49.18;47.56;51.39;;
66460;Laerm;58055;52.456;4.738;2023-08-01T00:05:06;49.41;48.10;52.23;;
66460;Laerm;58055;52.456;4.738;2023-08-01T00:05:16;49.46;48.15;52.33;;
66460;Laerm;58055;52.456;4.738;2023-08-01T00:05:26;49.46;48.08;52.15;;
66460;Laerm;58055;52.456;4.738;2023-08-01T00:05:36;49.36;48.26;53.50;;
66460;Laerm;58055;52.456;4.738;2023-08-01T00:05:48;49.40;48.08;52.62;;
66460;Laerm;58055;52.456;4.738;2023-08-01T00:05:59;49.19;47.91;51.23;;
66460;Laerm;58055;52.456;4.738;2023-08-01T00:06:09;49.13;47.81;51.06;;
66460;Laerm;58055;52.456;4.738;2023-08-01T00:06:19;49.38;47.65;53.16;;
66460;Laerm;58055;52.456;4.738;2023-08-01T00:06:30;49.37;47.89;52.38;;
66460;Laerm;58055;52.456;4.738;2023-08-01T00:06:40;49.29;47.74;51.14;;
66460;Laerm;58055;52.456;4.738;2023-08-01T00:06:51;49.53;48.12;53.14;;
66460;Laerm;58055;52.456;4.738;2023-08-01T00:07:01;49.53;47.97;52.69;;
66460;Laerm;58055;52.456;4.738;2023-08-01T00:07:11;48.86;47.43;53.11;;
66460;Laerm;58055;52.456;4.738;2023-08-01T00:07:22;49.08;47.33;51.19;;
66460;Laerm;58055;52.456;4.738;2023-08-01T00:07:32;48.51;47.10;53.35;;
66460;Laerm;58055;52.456;4.738;2023-08-01T00:07:42;48.59;46.78;53.37;;
66460;Laerm;58055;52.456;4.738;2023-08-01T00:07:52;49.13;47.79;50.80;;
66460;Laerm;58055;52.456;4.738;2023-08-01T00:08:03;49.16;47.73;53.85;;
66460;Laerm;58055;52.456;4.738;2023-08-01T00:08:13;49.23;47.98;52.29;;
66460;Laerm;58055;52.456;4.738;2023-08-01T00:08:24;49.41;47.76;53.75;;
66460;Laerm;58055;52.456;4.738;2023-08-01T00:08:34;49.39;47.90;54.09;;
66460;Laerm;58055;52.456;4.738;2023-08-01T00:08:44;49.24;47.60;53.77;;
66460;Laerm;58055;52.456;4.738;2023-08-01T00:08:54;49.34;47.75;52.37;;
66460;Laerm;58055;52.456;4.738;2023-08-01T00:09:04;49.56;48.01;54.73;;
66460;Laerm;58055;52.456;4.738;2023-08-01T00:09:15;49.43;48.07;53.40;;
66460;Laerm;58055;52.456;4.738;2023-08-01T00:09:25;49.55;48.02;54.47;;
66460;Laerm;58055;52.456;4.738;2023-08-01T00:09:35;49.47;47.86;54.19;;
66460;Laerm;58055;52.456;4.738;2023-08-01T00:09:45;49.49;48.17;53.17;;
66460;Laerm;58055;52.456;4.738;2023-08-01T00:09:56;49.65;48.11;54.33;;
66460;Laerm;58055;52.456;4.738;2023-08-01T00:10:06;49.62;48.15;51.55;;
66460;Laerm;58055;52.456;4.738;2023-08-01T00:10:16;49.89;48.36;54.51;;
66460;Laerm;58055;52.456;4.738;2023-08-01T00:10:27;49.44;47.88;53.59;;
66460;Laerm;58055;52.456;4.738;2023-08-01T00:10:37;49.47;48.12;54.46;;
66460;Laerm;58055;52.456;4.738;2023-08-01T00:10:48;49.46;47.94;54.14;;
66460;Laerm;58055;52.456;4.738;2023-08-01T00:10:58;50.02;47.98;53.95;;
66460;Laerm;58055;52.456;4.738;2023-08-01T00:11:08;49.40;48.09;53.15;;
66460;Laerm;58055;52.456;4.738;2023-08-01T00:11:20;49.40;48.05;54.29;;
66460;Laerm;58055;52.456;4.738;2023-08-01T00:11:30;49.91;48.04;53.94;;
66460;Laerm;58055;52.456;4.738;2023-08-01T00:11:40;49.47;48.01;53.73;;
66460;Laerm;58055;52.456;4.738;2023-08-01T00:11:50;49.97;48.15;54.29;;
66460;Laerm;58055;52.456;4.738;2023-08-01T00:12:01;49.65;47.98;53.75;;
66460;Laerm;58055;52.456;4.738;2023-08-01T00:12:11;49.47;47.76;53.43;;
66460;Laerm;58055;52.456;4.738;2023-08-01T00:12:23;49.77;48.34;52.99;;
66460;Laerm;58055;52.456;4.738;2023-08-01T00:12:33;49.29;47.76;53.50;;
66460;Laerm;58055;52.456;4.738;2023-08-01T00:12:44;49.41;48.00;52.83;;
66460;Laerm;58055;52.456;4.738;2023-08-01T00:12:54;50.12;48.00;53.80;;
66460;Laerm;58055;52.456;4.738;2023-08-01T00:13:04;49.70;48.30;54.23;;
66460;Laerm;58055;52.456;4.738;2023-08-01T00:13:15;49.76;48.41;54.14;;
66460;Laerm;58055;52.456;4.738;2023-08-01T00:13:25;50.37;48.66;54.07;;
66460;Laerm;58055;52.456;4.738;2023-08-01T00:13:35;49.98;48.34;54.37;;
66460;Laerm;58055;52.456;4.738;2023-08-01T00:13:45;50.07;48.32;55.44;;
66460;Laerm;58055;52.456;4.738;2023-08-01T00:13:56;50.10;48.69;54.64;;
66460;Laerm;58055;52.456;4.738;2023-08-01T00:14:06;49.79;48.38;54.89;;
66460;Laerm;58055;52.456;4.738;2023-08-01T00:14:16;50.01;48.59;54.72;;
66460;Laerm;58055;52.456;4.738;2023-08-01T00:14:27;50.20;48.52;58.67;;
66460;Laerm;58055;52.456;4.738;2023-08-01T00:14:37;50.15;48.39;54.10;;
66460;Laerm;58055;52.456;4.738;2023-08-01T00:14:48;50.03;48.39;54.36;;
66460;Laerm;58055;52.456;4.738;2023-08-01T00:14:58;49.90;48.18;54.09;;
66460;Laerm;58055;52.456;4.738;2023-08-01T00:15:08;49.86;48.39;54.83;;
66460;Laerm;58055;52.456;4.738;2023-08-01T00:15:18;50.08;48.36;54.12;;
66460;Laerm;58055;52.456;4.738;2023-08-01T00:15:29;49.70;48.36;54.59;;
66460;Laerm;58055;52.456;4.738;2023-08-01T00:15:39;50.16;48.08;54.83;;
66460;Laerm;58055;52.456;4.738;2023-08-01T00:15:49;50.33;48.22;54.24;;
66460;Laerm;58055;52.456;4.738;2023-08-01T00:16:00;50.49;48.88;54.26;;
66460;Laerm;58055;52.456;4.738;2023-08-01T00:16:10;50.32;48.22;54.57;;
66460;Laerm;58055;52.456;4.738;2023-08-01T00:16:20;50.00;48.13;55.40;;
66460;Laerm;58055;52.456;4.738;2023-08-01T00:16:30;50.83;49.41;53.03;;
66460;Laerm;58055;52.456;4.738;2023-08-01T00:16:42;50.40;48.69;54.45;;
66460;Laerm;58055;52.456;4.738;2023-08-01T00:16:52;50.49;48.42;54.21;;
66460;Laerm;58055;52.456;4.738;2023-08-01T00:17:03;50.53;48.07;54.15;;
66460;Laerm;58055;52.456;4.738;2023-08-01T00:17:13;50.81;48.24;55.68;;
66460;Laerm;58055;52.456;4.738;2023-08-01T00:17:23;51.00;47.80;55.17;;
66460;Laerm;58055;52.456;4.738;2023-08-01T00:17:34;50.03;48.01;54.98;;
66460;Laerm;58055;52.456;4.738;2023-08-01T00:17:44;49.86;47.79;54.61;;
66460;Laerm;58055;52.456;4.738;2023-08-01T00:17:55;49.68;48.13;52.03;;
66460;Laerm;58055;52.456;4.738;2023-08-01T00:18:05;49.70;47.81;54.48;;
66460;Laerm;58055;52.456;4.738;2023-08-01T00:18:15;50.13;47.96;54.76;;
66460;Laerm;58055;52.456;4.738;2023-08-01T00:18:26;50.84;47.96;55.19;;
66460;Laerm;58055;52.456;4.738;2023-08-01T00:18:36;51.28;48.99;55.51;;
66460;Laerm;58055;52.456;4.738;2023-08-01T00:18:46;51.73;49.01;55.55;;
66460;Laerm;58055;52.456;4.738;2023-08-01T00:18:57;51.38;49.09;54.75;;
66460;Laerm;58055;52.456;4.738;2023-08-01T00:19:07;51.31;49.29;55.36;;
66460;Laerm;58055;52.456;4.738;2023-08-01T00:19:17;50.80;48.37;54.13;;
66460;Laerm;58055;52.456;4.738;2023-08-01T00:19:28;50.65;47.70;57.63;;
66460;Laerm;58055;52.456;4.738;2023-08-01T00:19:38;50.38;47.68;56.23;;
66460;Laerm;58055;52.456;4.738;2023-08-01T00:19:48;50.57;48.35;54.58;;
66460;Laerm;58055;52.456;4.738;2023-08-01T00:19:59;50.76;48.41;55.52;;
66460;Laerm;58055;52.456;4.738;2023-08-01T00:20:09;50.75;48.58;54.57;;
66460;Laerm;58055;52.456;4.738;2023-08-01T00:20:19;50.81;48.40;53.79;;
66460;Laerm;58055;52.456;4.738;2023-08-01T00:20:30;50.66;48.34;54.82;;
66460;Laerm;58055;52.456;4.738;2023-08-01T00:20:40;51.42;48.37;54.71;;
66460;Laerm;58055;52.456;4.738;2023-08-01T00:20:54;51.11;48.42;54.59;;
66460;Laerm;58055;52.456;4.738;2023-08-01T00:21:04;50.80;48.66;54.34;;
66460;Laerm;58055;52.456;4.738;2023-08-01T00:21:20;51.16;47.81;57.14;;
66460;Laerm;58055;52.456;4.738;2023-08-01T00:21:30;51.61;47.49;56.73;;
66460;Laerm;58055;52.456;4.738;2023-08-01T00:21:42;51.63;47.71;57.13;;
66460;Laerm;58055;52.456;4.738;2023-08-01T00:21:52;52.52;49.73;55.45;;
66460;Laerm;58055;52.456;4.738;2023-08-01T00:22:02;53.19;50.59;58.13;;
66460;Laerm;58055;52.456;4.738;2023-08-01T00:22:13;55.88;52.09;58.08;;
66460;Laerm;58055;52.456;4.738;2023-08-01T00:22:23;55.33;53.31;57.24;;
66460;Laerm;58055;52.456;4.738;2023-08-01T00:22:33;54.47;52.35;57.25;;
66460;Laerm;58055;52.456;4.738;2023-08-01T00:22:43;54.82;52.62;58.81;;
66460;Laerm;58055;52.456;4.738;2023-08-01T00:22:54;55.60;53.02;58.26;;
66460;Laerm;58055;52.456;4.738;2023-08-01T00:23:04;56.00;53.16;59.31;;
66460;Laerm;58055;52.456;4.738;2023-08-01T00:23:14;55.29;53.20;57.68;;
66460;Laerm;58055;52.456;4.738;2023-08-01T00:23:25;54.46;51.13;57.78;;
66460;Laerm;58055;52.456;4.738;2023-08-01T00:23:35;55.08;51.00;57.44;;
66460;Laerm;58055;52.456;4.738;2023-08-01T00:23:45;56.09;51.86;58.51;;
66460;Laerm;58055;52.456;4.738;2023-08-01T00:23:56;54.75;52.08;56.83;;
66460;Laerm;58055;52.456;4.738;2023-08-01T00:24:06;55.23;51.94;57.53;;
66460;Laerm;58055;52.456;4.738;2023-08-01T00:24:18;54.79;51.62;56.80;;
66460;Laerm;58055;52.456;4.738;2023-08-01T00:24:28;55.07;52.73;56.99;;
66460;Laerm;58055;52.456;4.738;2023-08-01T00:24:38;55.40;53.14;57.40;;
66460;Laerm;58055;52.456;4.738;2023-08-01T00:24:48;55.07;51.59;58.64;;
66460;Laerm;58055;52.456;4.738;2023-08-01T00:24:59;55.67;53.69;58.52;;
66460;Laerm;58055;52.456;4.738;2023-08-01T00:25:09;54.18;50.03;57.49;;
66460;Laerm;58055;52.456;4.738;2023-08-01T00:25:19;53.67;50.48;57.94;;
66460;Laerm;58055;52.456;4.738;2023-08-01T00:25:30;55.40;53.28;58.81;;
66460;Laerm;58055;52.456;4.738;2023-08-01T00:25:40;55.37;53.37;58.55;;
66460;Laerm;58055;52.456;4.738;2023-08-01T00:25:50;54.93;52.62;57.70;;
66460;Laerm;58055;52.456;4.738;2023-08-01T00:26:01;55.41;52.61;58.26;;
66460;Laerm;58055;52.456;4.738;2023-08-01T00:26:12;55.61;52.23;57.92;;
66460;Laerm;58055;52.456;4.738;2023-08-01T00:26:22;55.35;52.37;57.49;;
66460;Laerm;58055;52.456;4.738;2023-08-01T00:26:32;55.37;52.13;56.75;;
66460;Laerm;58055;52.456;4.738;2023-08-01T00:26:43;55.51;53.00;57.01;;
66460;Laerm;58055;52.456;4.738;2023-08-01T00:26:53;55.48;53.25;57.57;;
66460;Laerm;58055;52.456;4.738;2023-08-01T00:27:05;56.00;53.60;57.95;;
66460;Laerm;58055;52.456;4.738;2023-08-01T00:27:19;56.08;54.14;57.79;;
66460;Laerm;58055;52.456;4.738;2023-08-01T00:27:29;56.18;53.95;58.38;;
66460;Laerm;58055;52.456;4.738;2023-08-01T00:27:42;56.35;53.88;58.45;;
66460;Laerm;58055;52.456;4.738;2023-08-01T00:27:52;56.66;54.49;58.35;;
66460;Laerm;58055;52.456;4.738;2023-08-01T00:28:03;56.31;53.67;58.35;;
66460;Laerm;58055;52.456;4.738;2023-08-01T00:28:13;56.62;54.35;58.62;;
66460;Laerm;58055;52.456;4.738;2023-08-01T00:28:23;56.72;53.30;58.63;;
66460;Laerm;58055;52.456;4.738;2023-08-01T00:28:33;56.55;54.45;58.69;;
66460;Laerm;58055;52.456;4.738;2023-08-01T00:28:44;56.61;54.33;58.37;;
66460;Laerm;58055;52.456;4.738;2023-08-01T00:28:54;56.55;54.10;58.18;;
66460;Laerm;58055;52.456;4.738;2023-08-01T00:29:04;56.37;54.05;59.33;;
66460;Laerm;58055;52.456;4.738;2023-08-01T00:29:15;56.84;54.01;58.87;;
66460;Laerm;58055;52.456;4.738;2023-08-01T00:29:25;57.01;53.21;58.50;;
66460;Laerm;58055;52.456;4.738;2023-08-01T00:29:35;56.93;54.70;58.99;;
66460;Laerm;58055;52.456;4.738;2023-08-01T00:29:46;56.97;54.78;60.31;;
66460;Laerm;58055;52.456;4.738;2023-08-01T00:29:56;56.26;51.24;58.48;;
66460;Laerm;58055;52.456;4.738;2023-08-01T00:30:07;56.86;54.96;58.62;;
66460;Laerm;58055;52.456;4.738;2023-08-01T00:30:17;56.53;53.88;58.42;;
66460;Laerm;58055;52.456;4.738;2023-08-01T00:30:27;56.39;54.03;58.43;;
66460;Laerm;58055;52.456;4.738;2023-08-01T00:30:38;56.29;52.56;59.85;;
66460;Laerm;58055;52.456;4.738;2023-08-01T00:30:48;56.55;54.02;58.14;;
66460;Laerm;58055;52.456;4.738;2023-08-01T00:31:02;56.84;54.01;58.56;;
66460;Laerm;58055;52.456;4.738;2023-08-01T00:31:12;57.18;54.23;59.09;;
66460;Laerm;58055;52.456;4.738;2023-08-01T00:31:23;57.38;54.48;59.51;;
66460;Laerm;58055;52.456;4.738;2023-08-01T00:31:33;56.86;53.92;59.19;;
66460;Laerm;58055;52.456;4.738;2023-08-01T00:31:43;56.65;53.64;58.50;;
66460;Laerm;58055;52.456;4.738;2023-08-01T00:31:53;56.33;52.82;58.31;;
66460;Laerm;58055;52.456;4.738;2023-08-01T00:32:04;56.82;54.31;58.85;;
66460;Laerm;58055;52.456;4.738;2023-08-01T00:32:14;56.89;54.42;58.53;;
66460;Laerm;58055;52.456;4.738;2023-08-01T00:32:24;57.23;54.03;59.09;;
66460;Laerm;58055;52.456;4.738;2023-08-01T00:32:35;57.34;54.79;59.19;;
66460;Laerm;58055;52.456;4.738;2023-08-01T00:32:45;56.86;53.36;58.77;;
66460;Laerm;58055;52.456;4.738;2023-08-01T00:32:56;56.66;52.51;59.13;;
66460;Laerm;58055;52.456;4.738;2023-08-01T00:33:06;56.23;52.13;58.83;;
66460;Laerm;58055;52.456;4.738;2023-08-01T00:33:16;56.14;52.50;59.12;;
66460;Laerm;58055;52.456;4.738;2023-08-01T00:33:26;56.52;52.10;58.84;;
66460;Laerm;58055;52.456;4.738;2023-08-01T00:33:37;56.44;53.23;59.30;;
66460;Laerm;58055;52.456;4.738;2023-08-01T00:33:47;56.41;53.23;60.37;;
66460;Laerm;58055;52.456;4.738;2023-08-01T00:33:57;56.00;52.31;58.18;;
66460;Laerm;58055;52.456;4.738;2023-08-01T00:34:07;55.83;51.37;57.62;;
66460;Laerm;58055;52.456;4.738;2023-08-01T00:34:18;55.63;52.76;59.02;;
66460;Laerm;58055;52.456;4.738;2023-08-01T00:34:28;56.24;53.80;58.24;;
66460;Laerm;58055;52.456;4.738;2023-08-01T00:34:38;56.45;52.28;58.43;;
66460;Laerm;58055;52.456;4.738;2023-08-01T00:34:50;55.96;51.82;58.34;;
66460;Laerm;58055;52.456;4.738;2023-08-01T00:35:00;55.56;52.92;58.07;;
66460;Laerm;58055;52.456;4.738;2023-08-01T00:35:10;55.21;51.54;57.00;;
66460;Laerm;58055;52.456;4.738;2023-08-01T00:35:20;55.37;52.23;57.59;;
66460;Laerm;58055;52.456;4.738;2023-08-01T00:35:31;55.22;52.09;57.50;;
66460;Laerm;58055;52.456;4.738;2023-08-01T00:35:41;55.06;51.76;57.00;;
66460;Laerm;58055;52.456;4.738;2023-08-01T00:35:54;55.33;52.94;58.28;;
66460;Laerm;58055;52.456;4.738;2023-08-01T00:36:05;55.15;52.18;58.71;;
66460;Laerm;58055;52.456;4.738;2023-08-01T00:36:19;54.69;52.56;57.27;;
66460;Laerm;58055;52.456;4.738;2023-08-01T00:36:29;54.75;52.12;57.36;;
66460;Laerm;58055;52.456;4.738;2023-08-01T00:36:39;54.97;52.60;57.91;;
66460;Laerm;58055;52.456;4.738;2023-08-01T00:36:50;55.00;52.81;57.13;;
66460;Laerm;58055;52.456;4.738;2023-08-01T00:37:00;54.86;52.05;57.61;;
66460;Laerm;58055;52.456;4.738;2023-08-01T00:37:10;54.53;51.56;56.67;;
66460;Laerm;58055;52.456;4.738;2023-08-01T00:37:21;54.44;51.51;56.07;;
66460;Laerm;58055;52.456;4.738;2023-08-01T00:37:31;54.28;51.63;57.81;;
66460;Laerm;58055;52.456;4.738;2023-08-01T00:37:41;55.25;51.60;58.01;;
66460;Laerm;58055;52.456;4.738;2023-08-01T00:37:52;55.21;51.43;57.69;;
66460;Laerm;58055;52.456;4.738;2023-08-01T00:38:02;55.07;51.96;57.00;;
66460;Laerm;58055;52.456;4.738;2023-08-01T00:38:12;55.00;52.54;58.40;;
66460;Laerm;58055;52.456;4.738;2023-08-01T00:38:22;53.68;49.96;57.30;;
66460;Laerm;58055;52.456;4.738;2023-08-01T00:38:33;51.75;49.31;56.58;;
66460;Laerm;58055;52.456;4.738;2023-08-01T00:38:43;53.75;50.87;59.11;;
66460;Laerm;58055;52.456;4.738;2023-08-01T00:38:53;54.10;50.45;57.86;;
66460;Laerm;58055;52.456;4.738;2023-08-01T00:39:03;53.81;50.03;57.20;;
66460;Laerm;58055;52.456;4.738;2023-08-01T00:39:14;52.96;49.70;56.99;;
66460;Laerm;58055;52.456;4.738;2023-08-01T00:39:24;54.23;50.89;58.70;;
66460;Laerm;58055;52.456;4.738;2023-08-01T00:39:34;54.54;51.11;59.59;;
66460;Laerm;58055;52.456;4.738;2023-08-01T00:39:45;54.26;51.09;58.35;;
66460;Laerm;58055;52.456;4.738;2023-08-01T00:39:55;55.50;51.84;59.83;;
66460;Laerm;58055;52.456;4.738;2023-08-01T00:40:05;55.31;51.45;61.30;;
66460;Laerm;58055;52.456;4.738;2023-08-01T00:40:16;55.28;52.59;61.73;;
66460;Laerm;58055;52.456;4.738;2023-08-01T00:40:33;55.42;52.38;60.10;;
66460;Laerm;58055;52.456;4.738;2023-08-01T00:40:44;55.71;52.48;60.69;;
66460;Laerm;58055;52.456;4.738;2023-08-01T00:40:54;55.34;52.69;58.55;;
66460;Laerm;58055;52.456;4.738;2023-08-01T00:41:04;55.67;52.73;59.15;;
66460;Laerm;58055;52.456;4.738;2023-08-01T00:41:14;56.07;53.18;61.22;;
66460;Laerm;58055;52.456;4.738;2023-08-01T00:41:25;55.65;53.18;60.07;;
66460;Laerm;58055;52.456;4.738;2023-08-01T00:41:35;52.89;49.28;59.81;;
66460;Laerm;58055;52.456;4.738;2023-08-01T00:41:45;51.68;49.40;57.72;;
66460;Laerm;58055;52.456;4.738;2023-08-01T00:41:55;52.03;49.66;59.17;;
66460;Laerm;58055;52.456;4.738;2023-08-01T00:42:06;52.15;49.40;58.45;;
66460;Laerm;58055;52.456;4.738;2023-08-01T00:42:16;52.36;49.79;59.40;;
66460;Laerm;58055;52.456;4.738;2023-08-01T00:42:26;52.40;49.48;58.82;;
66460;Laerm;58055;52.456;4.738;2023-08-01T00:42:37;52.82;50.10;62.31;;
66460;Laerm;58055;52.456;4.738;2023-08-01T00:42:48;52.49;49.96;58.54;;
66460;Laerm;58055;52.456;4.738;2023-08-01T00:42:58;51.63;49.54;58.51;;
66460;Laerm;58055;52.456;4.738;2023-08-01T00:43:09;51.34;49.22;58.52;;
66460;Laerm;58055;52.456;4.738;2023-08-01T00:43:19;50.83;48.95;58.87;;
66460;Laerm;58055;52.456;4.738;2023-08-01T00:43:30;51.03;48.61;60.37;;
66460;Laerm;58055;52.456;4.738;2023-08-01T00:43:40;51.10;49.09;60.00;;
66460;Laerm;58055;52.456;4.738;2023-08-01T00:43:50;51.25;48.84;59.10;;
66460;Laerm;58055;52.456;4.738;2023-08-01T00:44:00;51.40;49.55;59.25;;
66460;Laerm;58055;52.456;4.738;2023-08-01T00:44:11;51.37;49.36;59.27;;
66460;Laerm;58055;52.456;4.738;2023-08-01T00:44:21;51.60;49.20;59.46;;
66460;Laerm;58055;52.456;4.738;2023-08-01T00:44:31;51.49;49.36;61.20;;
66460;Laerm;58055;52.456;4.738;2023-08-01T00:44:41;51.88;48.62;61.69;;
66460;Laerm;58055;52.456;4.738;2023-08-01T00:44:52;50.46;48.66;57.94;;
66460;Laerm;58055;52.456;4.738;2023-08-01T00:45:04;50.68;48.66;59.35;;
66460;Laerm;58055;52.456;4.738;2023-08-01T00:45:14;50.57;48.75;57.00;;
66460;Laerm;58055;52.456;4.738;2023-08-01T00:45:27;51.21;49.04;60.13;;
66460;Laerm;58055;52.456;4.738;2023-08-01T00:45:38;51.26;49.42;59.44;;
66460;Laerm;58055;52.456;4.738;2023-08-01T00:45:49;51.55;49.71;59.14;;
66460;Laerm;58055;52.456;4.738;2023-08-01T00:46:00;51.49;49.84;58.47;;
66460;Laerm;58055;52.456;4.738;2023-08-01T00:46:13;51.67;49.71;60.70;;
66460;Laerm;58055;52.456;4.738;2023-08-01T00:46:24;51.32;49.65;58.98;;
66460;Laerm;58055;52.456;4.738;2023-08-01T00:46:34;51.62;49.51;59.51;;
66460;Laerm;58055;52.456;4.738;2023-08-01T00:46:44;51.62;49.42;59.54;;
66460;Laerm;58055;52.456;4.738;2023-08-01T00:46:55;51.72;50.01;59.95;;
66460;Laerm;58055;52.456;4.738;2023-08-01T00:47:05;52.17;50.55;59.68;;
66460;Laerm;58055;52.456;4.738;2023-08-01T00:47:16;52.48;50.15;60.13;;
66460;Laerm;58055;52.456;4.738;2023-08-01T00:47:26;56.81;49.49;62.68;;
66460;Laerm;58055;52.456;4.738;2023-08-01T00:47:37;59.37;54.18;64.21;;
66460;Laerm;58055;52.456;4.738;2023-08-01T00:47:47;55.76;50.62;61.22;;
66460;Laerm;58055;52.456;4.738;2023-08-01T00:47:57;56.43;48.82;63.87;;
66460;Laerm;58055;52.456;4.738;2023-08-01T00:48:07;56.43;47.32;61.69;;
66460;Laerm;58055;52.456;4.738;2023-08-01T00:48:18;55.24;47.82;60.79;;
66460;Laerm;58055;52.456;4.738;2023-08-01T00:48:29;55.15;47.85;63.81;;
66460;Laerm;58055;52.456;4.738;2023-08-01T00:48:39;54.72;47.92;60.95;;
66460;Laerm;58055;52.456;4.738;2023-08-01T00:48:50;53.44;48.26;60.96;;
66460;Laerm;58055;52.456;4.738;2023-08-01T00:49:00;53.61;50.39;59.82;;
66460;Laerm;58055;52.456;4.738;2023-08-01T00:49:11;53.00;50.19;58.05;;
66460;Laerm;58055;52.456;4.738;2023-08-01T00:49:22;52.65;49.63;58.36;;
66460;Laerm;58055;52.456;4.738;2023-08-01T00:49:32;52.56;49.80;58.17;;
66460;Laerm;58055;52.456;4.738;2023-08-01T00:49:42;53.19;50.88;58.29;;
66460;Laerm;58055;52.456;4.738;2023-08-01T00:49:53;52.75;50.03;57.51;;
66460;Laerm;58055;52.456;4.738;2023-08-01T00:50:03;52.70;50.09;58.15;;
66460;Laerm;58055;52.456;4.738;2023-08-01T00:50:14;52.09;49.27;57.84;;
66460;Laerm;58055;52.456;4.738;2023-08-01T00:50:24;52.30;49.62;59.21;;
66460;Laerm;58055;52.456;4.738;2023-08-01T00:50:34;52.72;48.97;58.50;;
66460;Laerm;58055;52.456;4.738;2023-08-01T00:50:45;52.49;49.44;57.60;;
66460;Laerm;58055;52.456;4.738;2023-08-01T00:50:56;52.86;49.61;59.21;;
66460;Laerm;58055;52.456;4.738;2023-08-01T00:51:07;53.62;49.47;62.60;;
66460;Laerm;58055;52.456;4.738;2023-08-01T00:51:19;56.28;52.99;61.05;;
66460;Laerm;58055;52.456;4.738;2023-08-01T00:51:30;56.01;53.54;61.41;;
66460;Laerm;58055;52.456;4.738;2023-08-01T00:51:41;56.23;53.20;62.45;;
66460;Laerm;58055;52.456;4.738;2023-08-01T00:51:52;56.60;53.25;62.69;;
66460;Laerm;58055;52.456;4.738;2023-08-01T00:52:03;56.62;53.31;63.01;;
66460;Laerm;58055;52.456;4.738;2023-08-01T00:52:13;56.26;53.73;63.11;;
66460;Laerm;58055;52.456;4.738;2023-08-01T00:52:23;56.47;53.92;62.63;;
66460;Laerm;58055;52.456;4.738;2023-08-01T00:52:33;56.88;54.15;62.96;;
66460;Laerm;58055;52.456;4.738;2023-08-01T00:52:44;56.57;53.74;62.06;;
66460;Laerm;58055;52.456;4.738;2023-08-01T00:52:54;56.65;54.24;63.55;;
66460;Laerm;58055;52.456;4.738;2023-08-01T00:53:05;56.83;53.92;62.72;;
66460;Laerm;58055;52.456;4.738;2023-08-01T00:53:16;56.86;53.71;62.53;;
66460;Laerm;58055;52.456;4.738;2023-08-01T00:53:26;56.65;53.93;62.34;;
66460;Laerm;58055;52.456;4.738;2023-08-01T00:53:37;56.78;53.77;64.95;;
66460;Laerm;58055;52.456;4.738;2023-08-01T00:53:47;56.97;53.92;63.06;;
66460;Laerm;58055;52.456;4.738;2023-08-01T00:53:58;56.92;54.22;63.67;;
66460;Laerm;58055;52.456;4.738;2023-08-01T00:54:09;56.76;53.89;61.33;;
66460;Laerm;58055;52.456;4.738;2023-08-01T00:54:19;56.88;53.63;62.80;;
66460;Laerm;58055;52.456;4.738;2023-08-01T00:54:29;56.91;54.44;62.54;;
66460;Laerm;58055;52.456;4.738;2023-08-01T00:54:45;57.18;54.45;63.42;;
66460;Laerm;58055;52.456;4.738;2023-08-01T00:54:55;56.86;54.29;62.98;;
66460;Laerm;58055;52.456;4.738;2023-08-01T00:55:06;56.79;53.25;61.34;;
66460;Laerm;58055;52.456;4.738;2023-08-01T00:55:16;57.21;54.45;63.37;;
66460;Laerm;58055;52.456;4.738;2023-08-01T00:55:27;56.90;53.46;63.08;;
66460;Laerm;58055;52.456;4.738;2023-08-01T00:55:39;56.74;53.15;63.55;;
66460;Laerm;58055;52.456;4.738;2023-08-01T00:55:51;57.24;53.81;63.14;;
66460;Laerm;58055;52.456;4.738;2023-08-01T00:56:02;57.00;53.52;62.92;;
66460;Laerm;58055;52.456;4.738;2023-08-01T00:56:14;57.03;53.19;62.53;;
66460;Laerm;58055;52.456;4.738;2023-08-01T00:56:24;57.10;53.41;63.39;;
66460;Laerm;58055;52.456;4.738;2023-08-01T00:56:35;56.43;51.08;63.02;;
66460;Laerm;58055;52.456;4.738;2023-08-01T00:56:46;55.74;52.41;60.52;;
66460;Laerm;58055;52.456;4.738;2023-08-01T00:56:56;55.00;51.54;60.94;;
66460;Laerm;58055;52.456;4.738;2023-08-01T00:57:07;54.70;51.04;59.56;;
66460;Laerm;58055;52.456;4.738;2023-08-01T00:57:17;53.79;50.66;60.17;;
66460;Laerm;58055;52.456;4.738;2023-08-01T00:57:27;53.14;51.00;59.91;;
66460;Laerm;58055;52.456;4.738;2023-08-01T00:57:38;53.19;50.91;60.70;;
66460;Laerm;58055;52.456;4.738;2023-08-01T00:57:48;52.88;50.46;58.74;;
66460;Laerm;58055;52.456;4.738;2023-08-01T00:57:58;54.69;48.65;62.00;;
66460;Laerm;58055;52.456;4.738;2023-08-01T00:58:09;52.73;48.49;60.21;;
66460;Laerm;58055;52.456;4.738;2023-08-01T00:58:19;52.67;48.22;59.86;;
66460;Laerm;58055;52.456;4.738;2023-08-01T00:58:30;52.98;48.11;60.62;;
66460;Laerm;58055;52.456;4.738;2023-08-01T00:58:40;52.37;48.74;59.26;;
66460;Laerm;58055;52.456;4.738;2023-08-01T00:58:53;52.48;48.43;59.90;;
66460;Laerm;58055;52.456;4.738;2023-08-01T00:59:04;54.37;48.52;60.63;;